Time;durP1;ratioP1;P1;durP2;ratioP2;P2;SDS_P1;SDS_P2;PMS_P1;PMS_P2;Temp;Humidity;BMP_temperature;BMP_pressure;BME280_temperature;BME280_humidity;BME280_pressure;Samples;Min_cycle;Max_cycle;Signal;HPM_P1;HPM_P2
2022/04/21 00:02:21;;;;;;;8.82;6.38;;;7.70;99.90;;;;;;4789032;30;20047;-70
2022/04/21 00:04:46;;;;;;;6.85;5.60;;;7.70;99.90;;;;;;4788804;30;20416;-70
2022/04/21 00:07:12;;;;;;;7.68;6.30;;;7.60;99.90;;;;;;4788237;30;20059;-68
2022/04/21 00:09:37;;;;;;;8.80;6.88;;;7.60;99.90;;;;;;4773152;30;20063;-70
2022/04/21 00:12:03;;;;;;;6.53;5.80;;;7.50;99.90;;;;;;4773451;30;20496;-70
2022/04/21 00:14:30;;;;;;;10.75;6.90;;;7.50;99.90;;;;;;4771832;30;20134;-71
2022/04/21 00:16:56;;;;;;;7.45;6.28;;;7.50;99.90;;;;;;4758903;30;20051;-70
2022/04/21 00:19:21;;;;;;;10.25;6.53;;;7.50;99.90;;;;;;4787790;30;20134;-71
2022/04/21 00:24:31;;;;;;;7.72;5.95;;;7.50;99.90;;;;;;4788038;30;20059;-69
2022/04/21 00:26:57;;;;;;;9.30;6.40;;;7.40;99.90;;;;;;4773077;30;20073;-69
2022/04/21 00:29:22;;;;;;;10.25;6.45;;;7.40;99.90;;;;;;4787432;29;20126;-74
2022/04/21 00:31:48;;;;;;;6.78;5.82;;;7.40;99.90;;;;;;4771815;30;20071;-72
2022/04/21 00:34:13;;;;;;;8.45;6.32;;;7.30;99.90;;;;;;4787351;29;20101;-70
2022/04/21 00:36:39;;;;;;;7.93;6.40;;;7.30;99.90;;;;;;4773523;30;20463;-70
2022/04/21 00:39:04;;;;;;;10.77;6.85;;;7.30;99.90;;;;;;4772937;30;20058;-70
2022/04/21 00:41:30;;;;;;;8.70;6.30;;;7.30;99.90;;;;;;4773728;30;20063;-72
2022/04/21 00:43:56;;;;;;;7.85;6.45;;;7.20;99.90;;;;;;4772122;30;20067;-71
2022/04/21 00:46:22;;;;;;;7.88;6.70;;;7.20;99.90;;;;;;4787559;29;20108;-70
2022/04/21 00:48:49;;;;;;;8.98;7.40;;;7.20;99.90;;;;;;4786782;29;20130;-71
2022/04/21 00:51:16;;;;;;;8.35;6.60;;;7.20;99.90;;;;;;4785740;29;20086;-71
2022/04/21 00:53:42;;;;;;;7.93;6.22;;;7.20;99.90;;;;;;4788905;29;20527;-69
2022/04/21 00:56:09;;;;;;;9.57;6.88;;;7.10;99.90;;;;;;4773992;30;20058;-71
2022/04/21 00:58:37;;;;;;;9.00;6.60;;;7.10;99.90;;;;;;4770899;30;20059;-71
2022/04/21 01:01:03;;;;;;;7.75;6.25;;;7.10;99.90;;;;;;4772594;30;20141;-70
2022/04/21 01:03:30;;;;;;;10.57;6.93;;;7.10;99.90;;;;;;4788307;30;20051;-70
2022/04/21 01:05:55;;;;;;;9.52;6.75;;;7.00;99.90;;;;;;4772732;30;20375;-70
2022/04/21 01:08:21;;;;;;;9.32;7.30;;;7.00;99.90;;;;;;4772385;30;20058;-71
2022/04/21 01:10:48;;;;;;;10.57;7.30;;;7.00;99.90;;;;;;4772994;29;20051;-71
2022/04/21 01:13:15;;;;;;;11.02;7.55;;;7.00;99.90;;;;;;4787427;30;20104;-72
2022/04/21 01:15:41;;;;;;;8.07;6.82;;;7.00;99.90;;;;;;4787156;30;20382;-71
2022/04/21 01:18:07;;;;;;;8.93;7.15;;;7.00;99.90;;;;;;4787555;30;20137;-70
2022/04/21 01:20:33;;;;;;;10.38;7.15;;;7.00;99.90;;;;;;4772905;30;20413;-71
2022/04/21 01:22:59;;;;;;;8.68;6.85;;;6.90;99.90;;;;;;4772600;30;20063;-71
2022/04/21 01:25:25;;;;;;;8.85;6.43;;;6.90;99.90;;;;;;4785996;30;20047;-71
2022/04/21 01:27:56;;;;;;;9.50;7.63;;;6.80;99.90;;;;;;4772100;30;20062;-71
2022/04/21 01:30:21;;;;;;;9.23;7.43;;;6.80;99.90;;;;;;4786942;29;20051;-71
2022/04/21 01:32:51;;;;;;;8.82;7.38;;;6.80;99.90;;;;;;4786085;30;20123;-71
2022/04/21 01:35:16;;;;;;;9.45;7.40;;;6.70;99.90;;;;;;4787343;29;20126;-71
2022/04/21 01:43:11;;;;;;;10.45;7.63;;;6.60;99.90;;;;;;4788149;30;20159;-69
2022/04/21 01:45:37;;;;;;;9.30;6.60;;;6.60;99.90;;;;;;4785845;29;20071;-69
2022/04/21 01:48:04;;;;;;;12.05;7.68;;;6.50;99.90;;;;;;4772355;29;20509;-74
2022/04/21 01:50:30;;;;;;;8.93;7.38;;;6.50;99.90;;;;;;4772783;30;20512;-70
2022/04/21 01:52:59;;;;;;;12.30;7.72;;;6.50;99.90;;;;;;4785933;29;20055;-70
2022/04/21 01:55:25;;;;;;;9.52;7.70;;;6.50;99.90;;;;;;4785199;29;20070;-69
2022/04/21 01:57:51;;;;;;;10.45;7.18;;;6.50;99.90;;;;;;4771842;30;20496;-70
2022/04/21 02:00:17;;;;;;;10.95;7.78;;;6.50;99.90;;;;;;4772462;30;20073;-72
2022/04/21 02:02:43;;;;;;;8.85;7.22;;;6.40;99.90;;;;;;4771327;30;20063;-72
2022/04/21 02:05:08;;;;;;;10.02;8.07;;;6.40;99.90;;;;;;4786312;29;20126;-71
2022/04/21 02:07:36;;;;;;;10.02;7.47;;;6.40;99.90;;;;;;4786850;30;20511;-70
2022/04/21 02:10:03;;;;;;;10.98;7.30;;;6.40;99.90;;;;;;4786007;29;20108;-71
2022/04/21 02:12:29;;;;;;;12.00;8.50;;;6.40;99.90;;;;;;4786934;30;20451;-70
2022/04/21 02:14:55;;;;;;;10.20;7.70;;;6.40;99.90;;;;;;4785829;29;20473;-70
2022/04/21 02:17:21;;;;;;;10.60;8.20;;;6.40;99.90;;;;;;4771921;30;20055;-72
2022/04/21 02:19:47;;;;;;;11.93;8.50;;;6.50;99.90;;;;;;4788423;29;20059;-71
2022/04/21 02:22:12;;;;;;;12.85;8.32;;;6.50;99.90;;;;;;4771313;30;20051;-72
2022/04/21 02:24:38;;;;;;;12.30;8.27;;;6.50;99.90;;;;;;4770816;30;20134;-71
2022/04/21 02:27:04;;;;;;;12.65;8.88;;;6.50;99.90;;;;;;4770311;30;20462;-73
2022/04/21 02:29:30;;;;;;;10.15;8.30;;;6.50;99.90;;;;;;4771193;30;20173;-70
2022/04/21 02:31:56;;;;;;;11.57;8.50;;;6.50;99.90;;;;;;4770174;30;20147;-70
2022/04/21 02:34:21;;;;;;;11.57;8.55;;;6.40;99.90;;;;;;4786668;29;20485;-72
2022/04/21 02:36:47;;;;;;;10.20;8.43;;;6.50;99.90;;;;;;4785786;29;20058;-70
2022/04/21 02:39:12;;;;;;;11.73;8.15;;;6.50;99.90;;;;;;4786277;29;20065;-71
2022/04/21 02:41:38;;;;;;;12.05;9.07;;;6.50;99.90;;;;;;4786058;30;20134;-71
2022/04/21 02:44:04;;;;;;;12.68;8.38;;;6.50;99.90;;;;;;4785446;30;20193;-71
2022/04/21 02:46:32;;;;;;;12.82;8.85;;;6.40;99.90;;;;;;4771550;30;20065;-70
2022/04/21 02:49:01;;;;;;;14.00;9.05;;;6.50;99.90;;;;;;4770670;30;20058;-72
2022/04/21 02:51:29;;;;;;;13.98;9.43;;;6.50;99.90;;;;;;4786381;29;20059;-71
2022/04/21 02:59:24;;;;;;;13.15;8.85;;;6.40;99.90;;;;;;4789314;29;20055;-70
2022/04/21 03:01:49;;;;;;;11.65;9.20;;;6.40;99.90;;;;;;4788930;30;21902;-72
2022/04/21 03:04:15;;;;;;;12.15;8.55;;;6.40;99.90;;;;;;4774458;29;20055;-71
2022/04/21 03:06:40;;;;;;;11.02;8.85;;;6.40;99.90;;;;;;4789393;29;20058;-72
2022/04/21 03:09:06;;;;;;;11.02;8.80;;;6.40;99.90;;;;;;4775047;29;20055;-73
2022/04/21 03:11:31;;;;;;;11.30;8.57;;;6.40;99.90;;;;;;4774777;30;20077;-70
2022/04/21 03:13:57;;;;;;;9.43;8.13;;;6.30;99.90;;;;;;4773312;30;20131;-70
2022/04/21 03:16:22;;;;;;;11.60;9.38;;;6.30;99.90;;;;;;4774818;30;20146;-71
2022/04/21 03:18:48;;;;;;;14.80;9.50;;;6.30;99.90;;;;;;4789563;30;20051;-71
2022/04/21 03:26:41;;;;;;;11.32;9.07;;;6.20;99.90;;;;;;4788125;29;20055;-71
2022/04/21 03:29:07;;;;;;;12.10;9.20;;;6.20;99.90;;;;;;4786325;29;20055;-72
2022/04/21 03:31:33;;;;;;;12.38;9.05;;;6.20;99.90;;;;;;4793119;29;20131;-71
2022/04/21 03:33:58;;;;;;;13.02;9.68;;;6.20;99.90;;;;;;4775047;30;20142;-69
2022/04/21 03:36:24;;;;;;;14.43;8.98;;;6.20;99.90;;;;;;4788968;29;20488;-71
2022/04/21 03:38:49;;;;;;;14.35;10.23;;;6.10;99.90;;;;;;4774636;30;20469;-71
2022/04/21 03:41:15;;;;;;;13.35;8.82;;;6.10;99.90;;;;;;4788261;30;20062;-71
2022/04/21 03:43:40;;;;;;;11.85;8.80;;;6.10;99.90;;;;;;4759002;30;20055;-70
2022/04/21 03:46:06;;;;;;;13.25;9.02;;;6.00;99.90;;;;;;4773944;30;20047;-69
2022/04/21 03:48:31;;;;;;;10.63;9.18;;;6.00;99.90;;;;;;4774688;30;20142;-71
2022/04/21 03:50:57;;;;;;;12.55;8.57;;;6.00;99.90;;;;;;4774504;30;20524;-71
2022/04/21 03:53:23;;;;;;;11.75;9.38;;;6.00;99.90;;;;;;4787106;30;20040;-70
2022/04/21 03:55:48;;;;;;;10.90;9.15;;;5.90;99.90;;;;;;4773018;30;20063;-71
2022/04/21 03:58:14;;;;;;;12.30;9.23;;;5.90;99.90;;;;;;4773887;30;20098;-71
2022/04/21 04:00:39;;;;;;;10.45;8.52;;;5.90;99.90;;;;;;4773958;30;20062;-69
2022/04/21 04:03:06;;;;;;;12.60;8.85;;;5.90;99.90;;;;;;4774102;30;20070;-71
2022/04/21 04:05:31;;;;;;;13.10;9.05;;;5.90;99.90;;;;;;4773181;30;20059;-71
2022/04/21 04:10:53;;;;;;;17.20;9.68;;;5.80;99.90;;;;;;4786607;29;20059;-69
2022/04/21 04:13:23;;;;;;;12.88;9.18;;;5.80;99.90;;;;;;4773380;30;20047;-70
2022/04/21 04:15:51;;;;;;;13.07;9.63;;;5.80;99.90;;;;;;4772215;30;20055;-69
2022/04/21 04:18:18;;;;;;;12.85;10.00;;;5.70;99.90;;;;;;4790663;29;20405;-70
2022/04/21 04:20:44;;;;;;;12.48;9.80;;;5.70;99.90;;;;;;4773122;30;20481;-72
2022/04/21 04:23:10;;;;;;;12.85;9.75;;;5.70;99.90;;;;;;4790497;29;20077;-70
2022/04/21 04:25:35;;;;;;;11.95;9.13;;;5.70;99.90;;;;;;4772857;30;20047;-70
2022/04/21 04:28:04;;;;;;;13.02;9.77;;;5.70;99.90;;;;;;4772275;30;20524;-70
2022/04/21 04:30:31;;;;;;;14.45;9.93;;;5.60;99.90;;;;;;4787978;30;20100;-70
2022/04/21 04:32:57;;;;;;;14.63;9.90;;;5.60;99.90;;;;;;4772966;30;20138;-71
2022/04/21 04:35:25;;;;;;;14.55;9.35;;;5.60;99.90;;;;;;4788760;29;20062;-70
2022/04/21 04:37:52;;;;;;;13.93;9.88;;;5.60;99.90;;;;;;4786690;29;20460;-70
2022/04/21 04:40:18;;;;;;;16.60;10.00;;;5.70;99.90;;;;;;4787882;29;20527;-70
2022/04/21 04:42:44;;;;;;;13.80;10.27;;;5.60;99.90;;;;;;4788446;30;20404;-70
2022/04/21 04:47:53;;;;;;;13.55;9.82;;;5.60;99.90;;;;;;4785021;29;20067;-69
2022/04/21 04:50:19;;;;;;;13.30;9.85;;;5.70;99.90;;;;;;4787121;29;20055;-71
2022/04/21 04:52:44;;;;;;;13.07;9.63;;;5.60;99.90;;;;;;4787363;30;20397;-69
2022/04/21 04:55:11;;;;;;;15.05;9.93;;;5.70;99.90;;;;;;4772820;30;20246;-71
2022/04/21 04:57:39;;;;;;;14.73;10.27;;;5.70;99.90;;;;;;4787075;29;20059;-70
2022/04/21 05:00:06;;;;;;;15.20;9.98;;;5.70;99.90;;;;;;4772104;30;20062;-69
2022/04/21 05:02:33;;;;;;;14.02;10.38;;;5.70;99.90;;;;;;4772896;30;20516;-70
2022/04/21 05:04:59;;;;;;;12.90;9.48;;;5.80;99.90;;;;;;4773261;30;20062;-70
2022/04/21 05:07:24;;;;;;;12.45;9.90;;;5.90;99.90;;;;;;4771332;30;20063;-69
2022/04/21 05:09:50;;;;;;;14.93;9.70;;;5.90;99.90;;;;;;4772928;30;20055;-69
2022/04/21 05:12:15;;;;;;;10.55;8.73;;;6.00;99.90;;;;;;4771686;30;20142;-69
2022/04/21 05:14:41;;;;;;;12.75;9.27;;;6.00;99.90;;;;;;4786526;29;20055;-71
2022/04/21 05:17:06;;;;;;;13.23;9.65;;;6.00;99.90;;;;;;4774893;30;20475;-72
2022/04/21 05:19:32;;;;;;;14.05;10.38;;;6.10;99.90;;;;;;4771576;30;20104;-68
2022/04/21 05:22:03;;;;;;;16.38;10.43;;;6.20;99.90;;;;;;4770655;29;20051;-69
2022/04/21 05:24:31;;;;;;;12.77;9.63;;;6.20;99.90;;;;;;4772152;30;20047;-72
2022/04/21 05:33:28;;;;;;;12.10;9.05;;;6.90;99.90;;;;;;4784152;29;20051;-70
2022/04/21 05:35:59;;;;;;;13.82;9.30;;;7.20;99.90;;;;;;4786543;29;20082;-69
2022/04/21 05:38:28;;;;;;;12.75;9.20;;;7.20;99.90;;;;;;4752669;29;20056;-70
2022/04/21 05:41:01;;;;;;;10.68;8.35;;;7.10;99.90;;;;;;4781067;29;20138;-69
2022/04/21 05:43:45;;;;;;;11.38;8.55;;;7.10;99.90;;;;;;4760564;30;20059;-69
2022/04/21 05:46:18;;;;;;;11.30;8.57;;;7.30;99.90;;;;;;4762189;30;20056;-72
2022/04/21 05:48:44;;;;;;;12.90;9.40;;;7.40;99.90;;;;;;4763215;30;20138;-71
2022/04/21 05:51:15;;;;;;;10.90;8.50;;;7.90;99.90;;;;;;4767994;30;20082;-71
2022/04/21 05:53:47;;;;;;;11.90;9.18;;;8.90;99.90;;;;;;4777397;30;20129;-70
2022/04/21 05:56:16;;;;;;;11.93;8.73;;;9.70;99.90;;;;;;4783162;29;20055;-72
2022/04/21 05:58:48;;;;;;;11.55;9.18;;;10.40;99.90;;;;;;4763137;30;20558;-71
2022/04/21 06:01:14;;;;;;;10.48;8.93;;;10.90;99.90;;;;;;4784503;29;20051;-71
2022/04/21 06:03:41;;;;;;;11.00;8.57;;;10.90;99.90;;;;;;4771973;30;20088;-71
2022/04/21 06:06:07;;;;;;;11.63;7.40;;;10.40;99.90;;;;;;4786633;30;20100;-69
2022/04/21 06:08:33;;;;;;;10.32;8.50;;;9.90;99.90;;;;;;4784060;29;20059;-71
2022/04/21 06:10:59;;;;;;;10.02;7.90;;;9.40;99.90;;;;;;4787061;29;20051;-70
2022/04/21 06:13:25;;;;;;;12.13;7.45;;;9.10;99.90;;;;;;4784708;30;20055;-70
2022/04/21 06:15:54;;;;;;;10.23;7.63;;;8.90;99.90;;;;;;4787706;30;20122;-72
2022/04/21 06:18:20;;;;;;;10.43;7.40;;;8.70;99.90;;;;;;4793266;29;20138;-72
2022/04/21 06:20:47;;;;;;;8.00;6.97;;;8.60;99.90;;;;;;4789706;29;20043;-72
2022/04/21 06:23:16;;;;;;;8.45;7.07;;;8.60;99.90;;;;;;4804342;29;20055;-71
2022/04/21 06:25:43;;;;;;;7.43;6.68;;;8.60;99.90;;;;;;4804638;29;20047;-73
2022/04/21 06:28:29;;;;;;;9.05;6.50;;;8.60;99.90;;;;;;4772170;30;20465;-72
2022/04/21 06:30:55;;;;;;;8.95;7.13;;;8.60;99.90;;;;;;4771230;30;20086;-70
2022/04/21 06:33:21;;;;;;;9.55;7.40;;;8.60;99.90;;;;;;4771220;30;20063;-71
2022/04/21 06:36:07;;;;;;;10.70;6.88;;;8.70;99.90;;;;;;4771559;30;20062;-71
2022/04/21 06:38:33;;;;;;;7.47;6.13;;;8.80;99.90;;;;;;4768616;30;20566;-72
2022/04/21 06:40:59;;;;;;;10.40;6.53;;;8.90;99.90;;;;;;4762330;30;21702;-72
2022/04/21 06:48:53;;;;;;;8.43;5.85;;;9.20;99.90;;;;;;4786189;29;20075;-71
2022/04/21 06:51:18;;;;;;;6.95;5.28;;;9.40;99.90;;;;;;4771405;30;20055;-73
2022/04/21 06:53:44;;;;;;;6.07;4.90;;;9.50;99.90;;;;;;4771212;29;20142;-71
2022/04/21 06:56:12;;;;;;;6.55;5.15;;;9.60;99.90;;;;;;4786273;29;20055;-70
2022/04/21 06:58:40;;;;;;;6.50;5.75;;;9.70;99.90;;;;;;4787329;29;20209;-72
2022/04/21 07:01:06;;;;;;;6.35;4.72;;;9.80;99.90;;;;;;4786045;29;20151;-69
2022/04/21 07:03:33;;;;;;;6.30;4.90;;;10.00;99.90;;;;;;4786132;29;20474;-72
2022/04/21 07:06:00;;;;;;;6.30;4.68;;;10.10;99.90;;;;;;4786094;30;20051;-72
2022/04/21 07:08:26;;;;;;;6.18;4.85;;;10.20;99.90;;;;;;4787213;30;20056;-70
2022/04/21 07:10:52;;;;;;;7.60;4.80;;;10.30;99.90;;;;;;4786082;29;20115;-70
2022/04/21 07:13:17;;;;;;;5.63;4.32;;;10.30;99.90;;;;;;4785968;30;20101;-70
2022/04/21 07:15:45;;;;;;;6.25;4.32;;;10.50;99.90;;;;;;4770602;30;20047;-71
2022/04/21 07:18:14;;;;;;;6.05;3.97;;;10.70;99.90;;;;;;4786865;29;20075;-69
2022/04/21 07:20:40;;;;;;;5.57;3.90;;;10.80;99.90;;;;;;4771398;30;20512;-71
2022/04/21 07:23:06;;;;;;;4.70;3.70;;;11.00;99.90;;;;;;4770887;30;20063;-71
2022/04/21 07:25:32;;;;;;;5.43;3.65;;;11.10;99.90;;;;;;4787490;29;20063;-73
2022/04/21 07:27:57;;;;;;;3.75;3.38;;;11.20;99.90;;;;;;4766982;30;20778;-70
2022/04/21 07:30:23;;;;;;;3.63;3.28;;;11.30;99.90;;;;;;4780588;29;20112;-72
2022/04/21 07:32:48;;;;;;;4.93;3.80;;;11.40;99.90;;;;;;4770724;30;20059;-71
2022/04/21 07:35:18;;;;;;;4.20;3.80;;;11.40;99.90;;;;;;4785768;30;20126;-73
2022/04/21 07:37:44;;;;;;;4.40;3.47;;;11.50;99.90;;;;;;4785238;30;20142;-71
2022/04/21 07:40:10;;;;;;;3.50;3.00;;;11.70;99.90;;;;;;4786353;30;20102;-73
2022/04/21 07:42:35;;;;;;;4.53;3.40;;;11.80;99.90;;;;;;4786377;29;20819;-71
2022/04/21 07:45:01;;;;;;;3.92;3.35;;;11.90;99.90;;;;;;4788802;30;20079;-71
2022/04/21 07:47:28;;;;;;;4.55;3.35;;;12.00;99.90;;;;;;4789817;29;20063;-70
2022/04/21 07:49:53;;;;;;;4.57;3.22;;;12.10;99.90;;;;;;4788939;30;20134;-71
2022/04/21 07:55:17;;;;;;;4.75;3.08;;;12.20;95.10;;;;;;4788758;29;20055;-70
2022/04/21 07:57:44;;;;;;;4.95;3.38;;;12.30;97.30;;;;;;4789606;30;20142;-71
2022/04/21 08:00:11;;;;;;;3.28;2.97;;;12.30;99.90;;;;;;4774100;30;20059;-70
2022/04/21 08:02:39;;;;;;;3.70;3.40;;;12.40;99.90;;;;;;4788878;29;20381;-71
2022/04/21 08:05:05;;;;;;;4.15;3.13;;;12.50;99.00;;;;;;4774293;30;20661;-72
2022/04/21 08:07:31;;;;;;;4.22;2.95;;;12.60;97.60;;;;;;4772868;30;20135;-69
2022/04/21 08:09:57;;;;;;;4.25;3.00;;;12.70;95.50;;;;;;4773566;30;20062;-71
2022/04/21 08:12:22;;;;;;;3.55;3.25;;;12.80;93.30;;;;;;4788780;29;20055;-69
2022/04/21 08:14:48;;;;;;;5.90;3.17;;;12.90;91.70;;;;;;4773538;30;20055;-70
2022/04/21 08:17:13;;;;;;;3.05;2.75;;;12.90;88.40;;;;;;4772177;30;20058;-71
2022/04/21 08:19:39;;;;;;;4.38;3.28;;;13.00;87.00;;;;;;4772834;29;20086;-72
2022/04/21 08:22:04;;;;;;;2.67;2.47;;;13.10;84.50;;;;;;4773408;29;20169;-71
2022/04/21 08:32:46;;;;;;;5.05;3.10;;;13.60;78.90;;;;;;4789800;29;20059;-71
2022/04/21 08:35:15;;;;;;;4.07;3.30;;;13.70;76.50;;;;;;4789496;30;20055;-72
2022/04/21 08:37:45;;;;;;;3.38;3.08;;;13.80;76.10;;;;;;4786821;29;20052;-71
2022/04/21 08:40:11;;;;;;;3.85;2.88;;;13.80;73.60;;;;;;4773790;30;20417;-70
2022/04/21 08:42:39;;;;;;;3.22;2.85;;;13.90;72.30;;;;;;4772874;30;20130;-70
2022/04/21 08:45:07;;;;;;;4.40;3.17;;;13.90;72.60;;;;;;4774142;29;20501;-69
2022/04/21 08:47:33;;;;;;;7.07;3.17;;;14.00;72.20;;;;;;4787998;29;20116;-71
2022/04/21 08:50:09;;;;;;;3.03;2.67;;;14.00;71.60;;;;;;4771848;30;20074;-70
2022/04/21 08:52:35;;;;;;;4.38;2.83;;;14.10;68.10;;;;;;4773370;30;20059;-71
2022/04/21 08:55:04;;;;;;;3.50;3.15;;;14.00;69.50;;;;;;4772909;30;20066;-72
2022/04/21 08:57:31;;;;;;;4.22;2.90;;;14.00;68.20;;;;;;4786899;29;20157;-71
2022/04/21 08:59:57;;;;;;;3.33;2.97;;;14.10;68.90;;;;;;4789392;29;20058;-71
2022/04/21 09:02:53;;;;;;;3.97;2.97;;;14.00;69.30;;;;;;4788191;30;20055;-73
2022/04/21 09:05:22;;;;;;;6.32;3.00;;;14.10;68.30;;;;;;4768488;30;20055;-71
2022/04/21 09:07:52;;;;;;;4.45;2.92;;;14.20;68.50;;;;;;4787225;29;20051;-72
2022/04/21 09:10:18;;;;;;;4.25;2.80;;;14.30;67.50;;;;;;4771162;30;20190;-73
2022/04/21 09:12:45;;;;;;;4.00;2.70;;;14.40;67.70;;;;;;4772445;29;20766;-73
2022/04/21 09:15:20;;;;;;;4.22;2.97;;;14.50;67.40;;;;;;4769701;30;20056;-71
2022/04/21 09:17:48;;;;;;;4.28;2.90;;;14.50;66.70;;;;;;4770672;30;20102;-71
2022/04/21 09:20:20;;;;;;;2.90;2.60;;;14.60;66.80;;;;;;4780427;29;20134;-71
2022/04/21 09:22:53;;;;;;;3.65;2.65;;;14.70;66.10;;;;;;4780581;29;20067;-71
2022/04/21 09:25:19;;;;;;;;;;;14.80;65.80;;;;;;4788653;30;20450;-72
2022/04/21 09:27:48;;;;;;;5.40;2.92;;;14.90;63.30;;;;;;4788471;30;19974;-71
2022/04/21 09:30:14;;;;;;;5.57;3.08;;;15.00;65.80;;;;;;4772851;30;20065;-71
2022/04/21 09:32:42;;;;;;;5.43;2.92;;;15.10;65.30;;;;;;4772636;30;20094;-70
2022/04/21 09:35:09;;;;;;;3.28;2.83;;;15.10;64.90;;;;;;4771962;29;20058;-72
2022/04/21 09:38:05;;;;;;;5.20;2.75;;;15.30;64.60;;;;;;4785643;29;20059;-72
2022/04/21 09:40:32;;;;;;;3.35;2.72;;;15.40;62.80;;;;;;4785091;29;20398;-72
2022/04/21 09:43:02;;;;;;;3.35;2.75;;;15.40;63.30;;;;;;4786781;29;20051;-71
2022/04/21 09:48:31;;;;;;;5.00;2.70;;;15.50;62.80;;;;;;4786928;29;20064;-70
2022/04/21 09:51:08;;;;;;;5.40;2.83;;;15.40;61.10;;;;;;4786287;29;20055;-72
2022/04/21 09:53:49;;;;;;;4.38;2.60;;;15.30;61.40;;;;;;4783161;29;20047;-73
2022/04/21 09:56:15;;;;;;;4.70;3.00;;;15.30;61.80;;;;;;4772092;30;20056;-71
2022/04/21 09:58:42;;;;;;;4.80;2.83;;;15.30;62.00;;;;;;4757007;30;20070;-72
2022/04/21 10:01:08;;;;;;;4.28;3.15;;;15.20;61.30;;;;;;4772449;30;20129;-72
2022/04/21 10:03:34;;;;;;;5.55;3.00;;;15.20;61.30;;;;;;4787449;30;20047;-72
2022/04/21 10:06:01;;;;;;;4.15;2.60;;;15.30;61.10;;;;;;4787492;29;20119;-74
2022/04/21 10:08:29;;;;;;;3.28;2.33;;;15.30;61.10;;;;;;4786918;29;20184;-73
2022/04/21 10:10:56;;;;;;;3.40;2.20;;;15.50;61.00;;;;;;4770941;30;20088;-72
2022/04/21 10:13:22;;;;;;;3.85;2.28;;;15.50;60.30;;;;;;4787808;29;20147;-72
2022/04/21 10:15:51;;;;;;;3.78;2.70;;;15.50;59.90;;;;;;4771584;30;21057;-71
2022/04/21 10:18:17;;;;;;;2.80;2.30;;;15.60;59.80;;;;;;4769818;29;20138;-74
2022/04/21 10:20:45;;;;;;;7.75;2.85;;;15.70;59.70;;;;;;4786052;29;20257;-72
2022/04/21 10:23:16;;;;;;;4.65;2.65;;;15.60;59.50;;;;;;4787497;30;20051;-71
2022/04/21 10:25:45;;;;;;;4.47;2.50;;;15.60;59.10;;;;;;4789276;29;20489;-73
2022/04/21 10:28:40;;;;;;;7.05;2.90;;;15.60;59.30;;;;;;4771102;30;20508;-74
2022/04/21 10:31:45;;;;;;;3.22;2.85;;;15.70;58.90;;;;;;4769045;30;20502;-71
2022/04/21 10:34:25;;;;;;;4.10;2.60;;;15.80;59.20;;;;;;4750882;29;20067;-74
2022/04/21 10:37:05;;;;;;;4.28;2.80;;;15.70;59.30;;;;;;4785559;29;20051;-70
2022/04/21 10:39:31;;;;;;;3.95;2.85;;;15.80;59.10;;;;;;4771200;30;20059;-73
2022/04/21 10:42:10;;;;;;;3.90;2.80;;;15.80;58.70;;;;;;4770067;29;20060;-71
2022/04/21 10:44:45;;;;;;;3.88;2.75;;;;;;;;;;4755193;30;20130;-72
2022/04/21 10:47:34;;;;;;;4.50;2.75;;;15.90;81.00;;;;;;4786272;30;20134;-70
2022/04/21 10:50:19;;;;;;;4.95;3.00;;;16.10;78.80;;;;;;4783777;29;20104;-71
2022/04/21 10:58:33;;;;;;;4.60;2.85;;;16.30;83.40;;;;;;4786891;29;20055;-71
2022/04/21 11:01:18;;;;;;;5.00;2.40;;;16.40;82.90;;;;;;4787252;30;20063;-73
2022/04/21 11:03:45;;;;;;;3.72;2.53;;;16.60;81.30;;;;;;4785031;29;20067;-72
2022/04/21 11:06:12;;;;;;;4.38;2.85;;;16.60;82.10;;;;;;4771222;29;20488;-72
2022/04/21 11:08:38;;;;;;;3.78;2.70;;;16.70;81.90;;;;;;4771021;30;20051;-71
2022/04/21 11:11:05;;;;;;;3.47;2.72;;;16.50;56.10;;;;;;4785774;29;20059;-72
2022/04/21 11:13:48;;;;;;;6.15;3.45;;;16.70;56.90;;;;;;4770856;30;20174;-73
2022/04/21 11:16:42;;;;;;;4.65;3.20;;;16.80;57.00;;;;;;4787377;29;20066;-72
2022/04/21 11:19:30;;;;;;;5.03;2.67;;;16.80;55.80;;;;;;4787719;29;20137;-71
2022/04/21 11:21:57;;;;;;;4.28;2.85;;;16.80;55.50;;;;;;4788690;29;20051;-70
2022/04/21 11:24:23;;;;;;;6.07;3.10;;;16.80;56.20;;;;;;4774224;30;20054;-72
2022/04/21 11:26:59;;;;;;;4.20;3.03;;;16.80;56.20;;;;;;4789635;29;20489;-72
2022/04/21 11:29:26;;;;;;;3.30;2.95;;;16.80;55.60;;;;;;4774324;30;20063;-71
2022/04/21 11:31:57;;;;;;;4.13;2.72;;;16.70;56.10;;;;;;4790862;30;20063;-72
2022/04/21 11:34:24;;;;;;;11.75;3.63;;;16.70;56.20;;;;;;4788668;29;20054;-71
2022/04/21 11:36:52;;;;;;;6.28;3.05;;;16.70;56.60;;;;;;4774370;30;20473;-72
2022/04/21 11:39:19;;;;;;;5.57;3.28;;;16.80;56.70;;;;;;4759629;30;20135;-72
2022/04/21 11:41:48;;;;;;;3.58;3.15;;;16.70;56.30;;;;;;4789854;29;20059;-72
2022/04/21 11:44:21;;;;;;;3.47;3.17;;;16.90;56.90;;;;;;4774241;29;20057;-72
2022/04/21 11:46:47;;;;;;;8.50;4.22;;;16.80;56.40;;;;;;4774413;30;20051;-70
2022/04/21 11:49:13;;;;;;;6.03;3.30;;;16.90;57.30;;;;;;4789633;29;20063;-70
2022/04/21 11:51:40;;;;;;;5.60;3.28;;;16.90;57.20;;;;;;4790774;30;20055;-71
2022/04/21 11:54:07;;;;;;;4.15;2.42;;;16.90;57.10;;;;;;4789367;30;20142;-72
2022/04/21 11:56:33;;;;;;;5.75;2.90;;;17.00;56.40;;;;;;4789277;29;20474;-73
2022/04/21 11:59:06;;;;;;;3.50;2.60;;;17.10;55.90;;;;;;4789993;29;20131;-73
2022/04/21 12:07:02;;;;;;;4.50;3.40;;;17.20;54.90;;;;;;4789228;29;20448;-72
2022/04/21 12:09:35;;;;;;;3.42;3.13;;;17.30;54.80;;;;;;4789489;29;20446;-72
2022/04/21 12:12:03;;;;;;;3.13;2.83;;;17.40;54.50;;;;;;4773774;30;20063;-71
2022/04/21 12:14:30;;;;;;;5.40;3.10;;;17.40;55.10;;;;;;4789692;30;20055;-71
2022/04/21 12:16:57;;;;;;;3.33;3.03;;;17.30;55.40;;;;;;4773760;30;20195;-71
2022/04/21 12:19:39;;;;;;;4.03;3.42;;;17.30;55.70;;;;;;4786877;29;20108;-72
2022/04/21 12:22:19;;;;;;;5.03;3.22;;;17.30;56.30;;;;;;4787308;29;20051;-71
2022/04/21 12:24:45;;;;;;;5.18;3.60;;;17.40;56.30;;;;;;4773966;30;20063;-71
2022/04/21 12:27:14;;;;;;;5.15;3.22;;;17.60;56.40;;;;;;4790563;30;20473;-71
2022/04/21 12:29:51;;;;;;;4.18;3.10;;;17.70;55.70;;;;;;4787557;29;20070;-71
2022/04/21 12:32:26;;;;;;;4.97;3.80;;;17.60;55.50;;;;;;4787476;29;20059;-70
2022/04/21 12:34:55;;;;;;;5.38;3.60;;;17.60;55.40;;;;;;4773889;30;20138;-70
2022/04/21 12:37:34;;;;;;;4.93;3.88;;;17.40;55.90;;;;;;4772994;29;20055;-70
2022/04/21 12:40:02;;;;;;;5.57;3.83;;;17.20;56.10;;;;;;4789983;30;20358;-71
2022/04/21 12:42:28;;;;;;;5.35;3.50;;;17.20;56.40;;;;;;4787631;30;20059;-70
2022/04/21 12:44:55;;;;;;;4.95;4.45;;;17.20;56.80;;;;;;4788683;29;20060;-70
2022/04/21 12:47:21;;;;;;;6.93;4.13;;;17.20;56.40;;;;;;4784862;30;20511;-70
2022/04/21 12:49:55;;;;;;;5.05;4.28;;;17.10;56.90;;;;;;4788612;30;20137;-72
2022/04/21 12:52:51;;;;;;;5.00;3.90;;;17.20;56.90;;;;;;4788520;30;20446;-70
2022/04/21 12:55:32;;;;;;;5.10;4.20;;;17.30;57.00;;;;;;4785237;29;20134;-71
2022/04/21 12:58:00;;;;;;;4.53;4.13;;;17.50;57.20;;;;;;4787494;30;20060;-71
2022/04/21 13:00:26;;;;;;;4.47;4.07;;;17.40;56.50;;;;;;4788143;29;20450;-70
2022/04/21 13:03:02;;;;;;;6.28;4.00;;;17.40;56.40;;;;;;4758380;30;20130;-70
2022/04/21 13:05:28;;;;;;;4.55;4.03;;;17.30;56.40;;;;;;4773322;30;20055;-72
2022/04/21 13:07:54;;;;;;;4.25;3.70;;;17.40;56.70;;;;;;4772852;30;20059;-71
2022/04/21 13:10:21;;;;;;;5.15;3.97;;;17.60;56.80;;;;;;4772691;30;20456;-70
2022/04/21 13:12:47;;;;;;;4.97;4.47;;;17.70;56.70;;;;;;4787767;30;20065;-72
2022/04/21 13:15:15;;;;;;;4.47;3.97;;;17.70;56.10;;;;;;4771875;30;20566;-72
2022/04/21 13:18:02;;;;;;;5.22;4.03;;;17.70;55.80;;;;;;4772716;30;20082;-71
2022/04/21 13:24:04;;;;;;;5.03;3.38;;;17.70;55.80;;;;;;4788548;29;20053;-70
2022/04/21 13:26:30;;;;;;;4.13;3.55;;;17.60;55.60;;;;;;4787197;29;20055;-69
2022/04/21 13:28:57;;;;;;;3.95;3.47;;;17.70;55.80;;;;;;4787443;29;20453;-71
2022/04/21 13:37:49;;;;;;;6.72;4.47;;;17.90;55.80;;;;;;4788363;29;20189;-70
2022/04/21 13:44:48;;;;;;;5.05;4.55;;;17.90;55.70;;;;;;4787988;30;20500;-71
2022/04/21 13:47:40;;;;;;;4.40;3.85;;;17.90;55.80;;;;;;4771190;30;20047;-72
2022/04/21 13:50:33;;;;;;;5.35;4.30;;;17.90;55.70;;;;;;4772720;30;20062;-72
2022/04/21 13:53:28;;;;;;;5.47;3.67;;;;;;;;;;4786965;30;20055;-71
2022/04/21 13:55:58;;;;;;;5.20;3.50;;;;;;;;;;4757040;30;20047;-71
2022/04/21 13:58:24;;;;;;;5.63;3.70;;;;;;;;;;4786339;29;20118;-70
2022/04/21 14:01:00;;;;;;;4.78;3.90;;;;;;;;;;4771271;30;20055;-72
2022/04/21 14:03:36;;;;;;;4.93;3.58;;;;;;;;;;4772069;30;20059;-69
2022/04/21 14:06:13;;;;;;;5.20;4.35;;;;;;;;;;4786958;30;20054;-71
2022/04/21 14:08:59;;;;;;;7.35;4.53;;;;;;;;;;4786460;29;20104;-71
2022/04/21 14:11:25;;;;;;;4.20;3.80;;;;;;;;;;4797838;29;20070;-71
2022/04/21 14:13:51;;;;;;;4.70;4.20;;;;;;;;;;4771151;30;20497;-72
2022/04/21 14:16:18;;;;;;;7.03;4.20;;;18.50;60.30;;;;;;4770254;30;20077;-69
2022/04/21 14:18:44;;;;;;;5.32;4.60;;;;;;;;;;4787264;30;20052;-69